createdAt,value
2018-07-24T00:00:08.453Z,16.10
2018-07-24T00:02:37.820Z,16.53
2018-07-24T00:05:07.251Z,16.30
2018-07-24T00:07:36.626Z,14.90
2018-07-24T00:10:07.624Z,15.23
2018-07-24T00:12:38.672Z,14.83
2018-07-24T00:15:09.192Z,14.27
2018-07-24T00:17:39.339Z,15.27
2018-07-24T00:20:09.434Z,14.97
2018-07-24T00:22:38.918Z,14.77
2018-07-24T00:25:08.300Z,15.00
2018-07-24T00:27:38.167Z,14.83
2018-07-24T00:30:07.702Z,14.10
2018-07-24T00:32:37.152Z,14.50
2018-07-24T00:35:08.119Z,13.80
2018-07-24T00:37:37.573Z,13.47
2018-07-24T00:40:07.025Z,14.00
2018-07-24T00:42:36.747Z,13.37
2018-07-24T00:45:06.285Z,13.20
2018-07-24T00:47:35.776Z,12.50
2018-07-24T00:50:05.549Z,13.50
2018-07-24T00:52:34.834Z,13.80
2018-07-24T00:55:04.293Z,13.70
2018-07-24T00:57:34.088Z,13.33
2018-07-24T01:00:03.558Z,13.43
2018-07-24T01:02:33.160Z,13.80
2018-07-24T01:05:02.936Z,13.10
2018-07-24T01:07:35.528Z,13.03
2018-07-24T01:10:05.244Z,13.67
2018-07-24T01:12:34.717Z,13.17
2018-07-24T01:15:04.226Z,12.93
2018-07-24T01:17:33.700Z,12.67
2018-07-24T01:20:03.153Z,14.03
2018-07-24T01:22:32.593Z,13.57
2018-07-24T01:25:01.970Z,14.93
2018-07-24T01:27:31.251Z,13.93
2018-07-24T01:30:00.603Z,13.63
2018-07-24T01:32:30.246Z,13.40
2018-07-24T01:34:59.687Z,13.40
2018-07-24T01:37:29.114Z,13.43
2018-07-24T01:39:58.619Z,14.50
2018-07-24T01:42:27.941Z,13.50
2018-07-24T01:44:57.400Z,13.30
2018-07-24T01:47:27.180Z,13.63
2018-07-24T01:49:56.452Z,14.00
2018-07-24T01:52:25.886Z,14.13
2018-07-24T01:54:55.353Z,15.30
2018-07-24T01:57:24.652Z,14.67
2018-07-24T01:59:54.164Z,13.97
2018-07-24T02:02:24.074Z,14.30
2018-07-24T02:04:53.491Z,15.90
2018-07-24T02:07:22.997Z,15.83
2018-07-24T02:09:52.831Z,15.17
2018-07-24T02:12:22.253Z,15.17
2018-07-24T02:14:51.777Z,14.97
2018-07-24T02:17:21.564Z,15.87
2018-07-24T02:19:50.905Z,14.97
2018-07-24T02:22:20.223Z,15.43
2018-07-24T02:24:49.877Z,14.50
2018-07-24T02:27:19.476Z,15.60
2018-07-24T02:29:49.265Z,14.77
2018-07-24T02:32:18.974Z,15.50
2018-07-24T02:34:48.897Z,15.80
2018-07-24T02:37:18.262Z,15.87
2018-07-24T02:39:48.130Z,15.53
2018-07-24T02:42:17.474Z,15.30
2018-07-24T02:44:47.151Z,14.53
2018-07-24T02:47:16.820Z,15.37
2018-07-24T02:49:46.161Z,15.83
2018-07-24T02:52:15.590Z,15.67
2018-07-24T02:54:46.112Z,15.23
2018-07-24T02:57:15.478Z,15.60
2018-07-24T02:59:44.828Z,16.20
2018-07-24T03:02:14.534Z,14.47
2018-07-24T03:04:44.023Z,15.03
2018-07-24T03:07:13.320Z,15.67
2018-07-24T03:09:43.050Z,15.33
2018-07-24T03:12:12.717Z,15.13
2018-07-24T03:14:42.170Z,15.27
2018-07-24T03:17:11.800Z,14.80
2018-07-24T03:19:41.130Z,15.50
2018-07-24T03:22:10.640Z,13.93
2018-07-24T03:24:40.147Z,15.57
2018-07-24T03:27:09.550Z,15.13
2018-07-24T03:29:39.061Z,15.60
2018-07-24T03:32:09.090Z,14.90
2018-07-24T03:34:38.945Z,14.77
2018-07-24T03:37:08.727Z,15.37
2018-07-24T03:39:38.109Z,14.93
2018-07-24T03:42:08.261Z,14.27
2018-07-24T03:44:38.478Z,14.87
2018-07-24T03:47:07.992Z,15.93
2018-07-24T03:49:37.407Z,14.50
2018-07-24T03:52:07.077Z,14.93
2018-07-24T03:54:36.639Z,16.33
2018-07-24T03:57:06.076Z,15.60
2018-07-24T03:59:35.956Z,15.37
2018-07-24T04:02:05.339Z,15.40
2018-07-24T04:04:34.864Z,15.10
2018-07-24T04:07:04.668Z,15.80
2018-07-24T04:09:34.149Z,15.90
2018-07-24T04:12:03.484Z,14.80
2018-07-24T04:14:33.021Z,15.53
2018-07-24T04:17:02.549Z,15.80
2018-07-24T04:19:31.859Z,16.17
2018-07-24T04:22:01.621Z,16.00
2018-07-24T04:24:31.358Z,16.10
2018-07-24T04:27:01.160Z,17.90
2018-07-24T04:29:31.131Z,16.80
2018-07-24T04:32:00.621Z,15.57
2018-07-24T04:34:32.688Z,16.00
2018-07-24T04:37:07.645Z,15.60
2018-07-24T04:39:37.757Z,15.37
2018-07-24T04:42:07.211Z,15.97
2018-07-24T04:44:37.130Z,15.83
2018-07-24T04:47:07.554Z,16.00
2018-07-24T04:49:37.460Z,23.20
2018-07-24T04:52:08.342Z,24.67
2018-07-24T04:54:43.372Z,15.77
2018-07-24T04:57:13.148Z,16.23
2018-07-24T04:59:43.287Z,16.10
2018-07-24T05:02:12.893Z,15.87
2018-07-24T05:04:42.416Z,16.47
2018-07-24T05:07:12.176Z,23.97
2018-07-24T05:09:43.728Z,20.93
2018-07-24T05:12:15.643Z,16.43
2018-07-24T05:14:45.828Z,16.33
2018-07-24T05:17:15.944Z,16.17
2018-07-24T05:19:46.237Z,16.67
2018-07-24T05:22:16.072Z,17.23
2018-07-24T05:24:45.811Z,15.80
2018-07-24T05:27:15.965Z,17.17
2018-07-24T05:29:45.793Z,18.47
2018-07-24T05:32:15.377Z,18.30
2018-07-24T05:34:45.320Z,17.67
2018-07-24T05:37:14.890Z,17.50
2018-07-24T05:39:44.698Z,17.93
2018-07-24T05:42:15.200Z,16.80
2018-07-24T05:44:44.663Z,19.07
2018-07-24T05:47:14.347Z,19.33
2018-07-24T05:49:43.981Z,19.27
2018-07-24T05:52:13.782Z,20.63
2018-07-24T05:54:44.062Z,19.60
2018-07-24T05:57:13.662Z,20.17
2018-07-24T05:59:43.528Z,20.50
2018-07-24T06:02:13.486Z,19.50
2018-07-24T06:04:43.094Z,20.03
2018-07-24T06:07:12.974Z,19.57
2018-07-24T06:09:43.107Z,20.03
2018-07-24T06:12:13.208Z,20.43
2018-07-24T06:14:42.826Z,20.93
2018-07-24T06:17:12.416Z,20.07
2018-07-24T06:19:41.988Z,19.30
2018-07-24T06:22:12.040Z,19.20
2018-07-24T06:24:41.845Z,19.90
2018-07-24T06:27:12.428Z,19.83
2018-07-24T06:29:42.108Z,19.70
2018-07-24T06:32:11.864Z,18.60
2018-07-24T06:34:41.841Z,19.57
2018-07-24T06:37:11.546Z,19.57
2018-07-24T06:39:41.523Z,19.73
2018-07-24T06:42:11.559Z,18.53
2018-07-24T06:44:41.330Z,18.00
2018-07-24T06:47:11.144Z,17.67
2018-07-24T06:49:41.339Z,17.87
2018-07-24T06:52:11.244Z,17.20
2018-07-24T06:54:41.110Z,18.37
2018-07-24T06:57:12.015Z,17.93
2018-07-24T06:59:41.912Z,16.43
2018-07-24T07:02:11.534Z,17.93
2018-07-24T07:04:41.265Z,16.33
2018-07-24T07:07:11.102Z,16.10
2018-07-24T07:09:41.601Z,15.53
2018-07-24T07:12:11.548Z,16.20
2018-07-24T07:14:41.151Z,16.23
2018-07-24T07:17:11.134Z,17.30
2018-07-24T07:19:41.174Z,16.27
2018-07-24T07:22:10.830Z,15.70
2018-07-24T07:24:40.651Z,14.97
2018-07-24T07:27:10.557Z,14.33
2018-07-24T07:29:40.125Z,14.40
2018-07-24T07:32:09.925Z,15.10
2018-07-24T07:34:39.396Z,14.90
2018-07-24T07:37:09.142Z,13.97
2018-07-24T07:39:38.935Z,14.70
2018-07-24T07:42:08.719Z,15.00
2018-07-24T07:44:38.314Z,14.67
2018-07-24T07:47:07.744Z,14.87
2018-07-24T07:49:37.570Z,14.67
2018-07-24T07:52:07.146Z,13.77
2018-07-24T07:54:37.028Z,13.40
2018-07-24T07:57:07.380Z,13.63
2018-07-24T07:59:36.990Z,13.10
2018-07-24T08:02:06.836Z,12.80
2018-07-24T08:04:37.692Z,13.30
2018-07-24T08:07:07.505Z,12.60
2018-07-24T08:09:37.294Z,13.47
2018-07-24T08:12:06.772Z,15.17
2018-07-24T08:14:36.796Z,12.97
2018-07-24T08:17:06.324Z,13.17
2018-07-24T08:19:36.165Z,12.73
2018-07-24T08:22:05.769Z,12.87
2018-07-24T08:24:35.265Z,13.43
2018-07-24T08:27:05.486Z,13.73
2018-07-24T08:29:35.097Z,13.57
2018-07-24T08:32:04.667Z,14.17
2018-07-24T08:34:35.059Z,12.80
2018-07-24T08:37:05.353Z,13.30
2018-07-24T08:39:36.168Z,14.17
2018-07-24T08:42:05.666Z,13.03
2018-07-24T08:44:35.655Z,12.37
2018-07-24T08:47:06.320Z,13.23
2018-07-24T08:49:36.194Z,12.70
2018-07-24T08:52:05.781Z,12.30
2018-07-24T08:54:35.695Z,12.23
2018-07-24T08:57:05.058Z,12.97
2018-07-24T08:59:34.602Z,12.50
2018-07-24T09:02:04.515Z,12.27
2018-07-24T09:04:36.248Z,12.57
2018-07-24T09:07:08.204Z,12.30
2018-07-24T09:09:38.253Z,12.90
2018-07-24T09:12:08.052Z,12.70
2018-07-24T09:14:37.564Z,12.53
2018-07-24T09:17:07.297Z,12.83
2018-07-24T09:19:36.935Z,12.43
2018-07-24T09:22:07.427Z,13.10
2018-07-24T09:24:38.567Z,12.97
2018-07-24T09:27:09.371Z,12.77
2018-07-24T09:29:39.351Z,13.63
2018-07-24T09:32:09.190Z,13.30
2018-07-24T09:34:39.260Z,13.30
2018-07-24T09:37:08.580Z,13.40
2018-07-24T09:39:38.198Z,12.63
2018-07-24T09:42:08.460Z,12.23
2018-07-24T09:44:38.173Z,12.80
2018-07-24T09:47:08.107Z,12.47
2018-07-24T09:49:38.103Z,12.10
2018-07-24T09:52:07.611Z,12.17
2018-07-24T09:54:37.337Z,12.20
2018-07-24T09:57:07.306Z,12.23
2018-07-24T09:59:36.733Z,12.27
2018-07-24T10:02:06.365Z,11.60
2018-07-24T10:04:36.404Z,12.17
2018-07-24T10:07:07.777Z,11.83
2018-07-24T10:09:37.798Z,10.97
2018-07-24T10:12:07.993Z,11.33
2018-07-24T10:14:37.657Z,11.23
2018-07-24T10:17:07.718Z,11.07
2018-07-24T10:19:37.229Z,11.73
2018-07-24T10:22:08.011Z,11.47
2018-07-24T10:24:37.628Z,10.80
2018-07-24T10:27:07.242Z,12.67
2018-07-24T10:29:37.312Z,10.80
2018-07-24T10:32:06.899Z,10.70
2018-07-24T10:34:37.240Z,11.80
2018-07-24T10:37:07.495Z,11.40
2018-07-24T10:39:37.379Z,12.00
2018-07-24T10:42:07.088Z,10.10
2018-07-24T10:44:36.887Z,11.57
2018-07-24T10:47:06.490Z,11.70
2018-07-24T10:49:36.194Z,9.90
2018-07-24T10:52:05.748Z,9.83
2018-07-24T10:54:35.411Z,10.83
2018-07-24T10:57:04.976Z,9.07
2018-07-24T10:59:35.289Z,10.70
2018-07-24T11:02:04.732Z,10.47
2018-07-24T11:04:34.230Z,10.90
2018-07-24T11:07:04.170Z,9.23
2018-07-24T11:09:33.606Z,10.20
2018-07-24T11:12:03.016Z,10.27
2018-07-24T11:14:33.030Z,10.50
2018-07-24T11:17:02.557Z,10.70
2018-07-24T11:19:32.221Z,9.77
2018-07-24T11:22:02.490Z,9.87
2018-07-24T11:24:31.863Z,10.00
2018-07-24T11:27:01.455Z,9.70
2018-07-24T11:29:31.293Z,10.33
2018-07-24T11:32:01.172Z,10.57
2018-07-24T11:34:30.675Z,9.60
2018-07-24T11:37:00.721Z,9.50
2018-07-24T11:39:30.226Z,10.93
2018-07-24T11:41:59.891Z,11.17
2018-07-24T11:44:31.635Z,10.37
2018-07-24T11:47:01.814Z,10.03
2018-07-24T11:49:32.929Z,11.10
2018-07-24T11:52:03.846Z,10.03
2018-07-24T11:54:34.266Z,10.13
2018-07-24T11:57:03.978Z,10.63
2018-07-24T11:59:33.433Z,10.53
2018-07-24T12:02:03.281Z,9.57
2018-07-24T12:04:33.074Z,8.67
2018-07-24T12:07:03.173Z,9.00
2018-07-24T12:09:33.202Z,9.73
2018-07-24T12:12:03.119Z,9.47
2018-07-24T12:14:32.909Z,9.80
2018-07-24T12:17:03.431Z,9.43
2018-07-24T12:19:33.159Z,9.90
2018-07-24T12:22:03.367Z,9.33
2018-07-24T12:24:33.105Z,9.47
2018-07-24T12:27:02.916Z,10.03
2018-07-24T12:29:32.541Z,9.80
2018-07-24T12:32:02.812Z,9.90
2018-07-24T12:34:32.357Z,10.80
2018-07-24T12:37:02.292Z,11.20
2018-07-24T12:39:33.768Z,10.60
2018-07-24T12:42:05.024Z,10.07
2018-07-24T12:44:35.230Z,10.17
2018-07-24T12:47:05.003Z,9.50
2018-07-24T12:49:34.731Z,8.90
2018-07-24T12:52:04.705Z,9.80
2018-07-24T12:54:34.468Z,10.37
2018-07-24T12:57:03.915Z,8.50
2018-07-24T12:59:34.901Z,8.23
2018-07-24T13:02:04.751Z,7.47
2018-07-24T13:04:34.939Z,9.07
2018-07-24T13:07:05.858Z,9.73
2018-07-24T13:09:35.293Z,9.80
2018-07-24T13:12:04.801Z,10.30
2018-07-24T13:14:34.760Z,11.83
2018-07-24T13:17:04.341Z,11.67
2018-07-24T13:19:34.336Z,11.07
2018-07-24T13:22:04.128Z,11.57
2018-07-24T13:24:33.894Z,12.03
2018-07-24T13:27:03.380Z,12.00
2018-07-24T13:29:33.585Z,12.23
2018-07-24T13:32:03.375Z,11.80
2018-07-24T13:34:32.913Z,14.90
2018-07-24T13:37:02.906Z,15.93
2018-07-24T13:39:32.415Z,16.20
2018-07-24T13:42:02.001Z,17.37
2018-07-24T13:44:32.268Z,18.93
2018-07-24T13:47:01.940Z,17.77
2018-07-24T13:49:31.477Z,17.97
2018-07-24T13:52:01.335Z,18.70
2018-07-24T13:54:31.217Z,20.37
2018-07-24T13:57:00.815Z,19.43
2018-07-24T13:59:30.447Z,17.93
2018-07-24T14:02:00.097Z,17.43
2018-07-24T14:04:32.358Z,17.27
2018-07-24T14:07:01.964Z,16.80
2018-07-24T14:09:31.497Z,16.33
2018-07-24T14:12:01.427Z,17.37
2018-07-24T14:14:31.429Z,18.00
2018-07-24T14:17:00.950Z,18.43
2018-07-24T14:19:32.696Z,18.93
2018-07-24T14:22:02.790Z,18.53
2018-07-24T14:24:34.225Z,20.53
2018-07-24T14:27:04.097Z,18.57
2018-07-24T14:29:33.973Z,18.80
2018-07-24T14:32:04.055Z,19.40
2018-07-24T14:34:34.261Z,19.43
2018-07-24T14:37:04.216Z,21.27
2018-07-24T14:39:35.072Z,16.93
2018-07-24T14:42:04.571Z,16.00
2018-07-24T14:44:34.565Z,17.07
2018-07-24T14:47:06.043Z,17.03
2018-07-24T14:49:36.003Z,16.43
2018-07-24T14:52:06.388Z,17.67
2018-07-24T14:54:36.855Z,16.63
2018-07-24T14:57:08.169Z,15.83
2018-07-24T14:59:38.224Z,15.17
2018-07-24T15:02:08.566Z,16.33
2018-07-24T15:04:39.589Z,15.40
2018-07-24T15:07:09.103Z,16.60
2018-07-24T15:09:40.391Z,16.00
2018-07-24T15:12:11.384Z,15.77
2018-07-24T15:14:44.939Z,12.43
2018-07-24T15:17:14.925Z,13.33
2018-07-24T15:19:44.788Z,12.07
2018-07-24T15:22:14.375Z,12.03
2018-07-24T15:24:44.970Z,12.43
2018-07-24T15:27:14.514Z,12.70
2018-07-24T15:29:44.486Z,13.73
2018-07-24T15:32:15.587Z,13.83
2018-07-24T15:34:45.327Z,14.10
2018-07-24T15:37:15.498Z,14.07
2018-07-24T15:39:44.955Z,25.83
2018-07-24T15:42:15.300Z,15.20
2018-07-24T15:44:45.232Z,16.13
2018-07-24T15:47:15.828Z,14.83
2018-07-24T15:49:47.965Z,16.07
2018-07-24T15:52:17.551Z,16.07
2018-07-24T15:54:47.824Z,15.97
2018-07-24T15:57:18.693Z,16.57
2018-07-24T15:59:51.310Z,16.83
2018-07-24T16:02:21.536Z,15.50
2018-07-24T16:04:52.090Z,16.23
2018-07-24T16:07:22.779Z,16.60
2018-07-24T16:09:52.683Z,16.97
2018-07-24T16:12:22.384Z,16.40
2018-07-24T16:14:51.868Z,16.87
2018-07-24T16:17:21.881Z,17.90
2018-07-24T16:19:53.580Z,17.50
2018-07-24T16:22:29.701Z,17.53
2018-07-24T16:25:00.059Z,16.63
2018-07-24T16:27:29.561Z,17.13
2018-07-24T16:29:59.501Z,17.00
2018-07-24T16:32:28.985Z,17.70
2018-07-24T16:35:00.014Z,17.27
2018-07-24T16:37:29.710Z,17.77
2018-07-24T16:39:59.391Z,18.33
2018-07-24T16:42:29.113Z,18.47
2018-07-24T16:44:58.718Z,18.27
2018-07-24T16:47:32.059Z,18.20
2018-07-24T16:52:40.308Z,28.70
2018-07-24T16:55:10.268Z,22.50
2018-07-24T16:57:39.696Z,19.90
2018-07-24T17:00:09.274Z,20.30
2018-07-24T17:02:39.174Z,20.33
2018-07-24T17:05:08.883Z,20.50
2018-07-24T17:07:38.776Z,19.73
2018-07-24T17:10:08.814Z,18.03
2018-07-24T17:12:38.553Z,18.70
2018-07-24T17:15:08.729Z,19.40
2018-07-24T17:17:38.594Z,19.17
2018-07-24T17:20:08.169Z,19.67
2018-07-24T17:22:38.159Z,19.47
2018-07-24T17:25:08.441Z,19.87
2018-07-24T17:27:38.083Z,19.83
2018-07-24T17:30:07.749Z,20.53
2018-07-24T17:32:37.913Z,19.27
2018-07-24T17:35:07.498Z,19.10
2018-07-24T17:37:36.903Z,19.67
2018-07-24T17:40:07.232Z,19.03
2018-07-24T17:42:36.898Z,19.43
2018-07-24T17:45:07.124Z,19.20
2018-07-24T17:47:36.996Z,18.70
2018-07-24T17:50:06.628Z,26.00
2018-07-24T17:52:36.259Z,22.03
2018-07-24T17:55:06.210Z,20.13
2018-07-24T17:57:36.015Z,19.77
2018-07-24T18:00:05.652Z,17.90
2018-07-24T18:02:35.200Z,19.47
2018-07-24T18:05:04.699Z,18.93
2018-07-24T18:07:34.312Z,19.53
2018-07-24T18:10:03.794Z,17.60
2018-07-24T18:12:33.524Z,26.00
2018-07-24T18:15:02.973Z,19.70
2018-07-24T18:17:39.134Z,20.33
2018-07-24T18:20:08.692Z,19.70
2018-07-24T18:22:39.481Z,17.97
2018-07-24T18:25:09.151Z,18.00
2018-07-24T18:27:38.699Z,17.33
2018-07-24T18:30:10.433Z,17.13
2018-07-24T18:32:39.901Z,17.13
2018-07-24T18:35:09.570Z,16.57
2018-07-24T18:37:39.614Z,18.00
2018-07-24T18:40:10.035Z,16.97
2018-07-24T18:42:42.028Z,18.03
2018-07-24T18:45:12.464Z,21.33
2018-07-24T18:47:41.885Z,82.60
2018-07-24T18:50:12.091Z,17.17
2018-07-24T18:52:41.602Z,16.83
2018-07-24T18:55:13.881Z,18.10
2018-07-24T18:57:43.491Z,19.77
2018-07-24T19:00:13.414Z,18.10
2018-07-24T19:02:43.926Z,17.10
2018-07-24T19:05:14.756Z,16.90
2018-07-24T19:07:44.252Z,16.83
2018-07-24T19:10:14.274Z,16.73
2018-07-24T19:12:44.116Z,16.80
2018-07-24T19:15:13.700Z,17.20
2018-07-24T19:17:44.001Z,16.17
2018-07-24T19:20:16.086Z,18.57
2018-07-24T19:22:46.030Z,20.10
2018-07-24T19:25:15.945Z,20.23
2018-07-24T19:27:45.687Z,21.40
2018-07-24T19:30:15.415Z,24.63
2018-07-24T19:32:44.990Z,21.03
2018-07-24T19:35:14.476Z,24.27
2018-07-24T19:37:44.494Z,22.53
2018-07-24T19:40:13.967Z,21.70
2018-07-24T19:42:43.513Z,20.70
2018-07-24T19:45:14.332Z,21.53
2018-07-24T19:47:47.569Z,20.13
2018-07-24T19:50:17.350Z,20.50
2018-07-24T19:52:46.854Z,20.93
2018-07-24T19:55:16.660Z,21.63
2018-07-24T19:57:46.157Z,22.03
2018-07-24T20:00:15.583Z,27.67
2018-07-24T20:02:45.093Z,22.57
2018-07-24T20:05:14.756Z,21.77
2018-07-24T20:07:44.251Z,20.93
2018-07-24T20:10:13.559Z,20.23
2018-07-24T20:12:43.275Z,22.77
2018-07-24T20:15:17.992Z,20.70
2018-07-24T20:17:47.870Z,27.10
2018-07-24T20:20:18.198Z,23.17
2018-07-24T20:22:53.623Z,20.93
2018-07-24T20:25:25.883Z,21.40
2018-07-24T20:27:55.636Z,20.70
2018-07-24T20:30:26.388Z,22.30
2018-07-24T20:32:59.353Z,22.80
2018-07-24T20:35:29.055Z,21.63
2018-07-24T20:37:59.302Z,24.00
2018-07-24T20:40:29.371Z,22.50
2018-07-24T21:00:21.977Z,22.90
2018-07-24T21:02:51.787Z,21.13
2018-07-24T21:22:43.990Z,22.73
2018-07-24T21:25:16.645Z,21.23
2018-07-24T21:45:08.408Z,21.57
2018-07-24T21:47:38.032Z,22.93
2018-07-24T21:50:07.805Z,21.17
2018-07-24T21:52:37.923Z,20.67
2018-07-24T21:55:07.685Z,21.70
2018-07-24T21:57:37.080Z,22.20
2018-07-24T22:00:12.025Z,22.43
2018-07-24T22:02:41.548Z,21.83
2018-07-24T22:05:11.545Z,22.80
2018-07-24T22:07:41.483Z,22.50
2018-07-24T22:27:35.077Z,23.97
2018-07-24T22:30:06.948Z,23.83
2018-07-24T22:32:36.530Z,24.73
2018-07-24T22:35:10.853Z,25.07
2018-07-24T22:37:42.591Z,26.90
2018-07-24T22:57:38.100Z,26.07
2018-07-24T23:17:30.026Z,30.40
2018-07-24T23:20:01.013Z,27.60
2018-07-24T23:22:30.473Z,26.23
2018-07-24T23:25:01.400Z,27.57
2018-07-24T23:27:34.933Z,25.43
2018-07-24T23:30:04.909Z,25.17
2018-07-24T23:32:45.899Z,25.07
2018-07-24T23:52:40.681Z,24.13
2018-07-24T23:55:10.310Z,24.10
2018-07-24T23:57:42.089Z,24.90
